createdAt,value
2023-02-25T00:01:31.613Z,100.00
2023-02-25T00:03:59.686Z,100.00
2023-02-25T00:06:27.256Z,100.00
2023-02-25T00:08:58.080Z,100.00
2023-02-25T00:11:26.316Z,100.00
2023-02-25T00:13:53.940Z,100.00
2023-02-25T00:16:25.342Z,100.00
2023-02-25T00:18:56.982Z,100.00
2023-02-25T00:21:25.545Z,100.00
2023-02-25T00:23:53.690Z,100.00
2023-02-25T00:26:22.050Z,100.00
2023-02-25T00:28:50.136Z,100.00
2023-02-25T00:31:20.802Z,100.00
2023-02-25T00:33:49.184Z,100.00
2023-02-25T00:36:25.005Z,100.00
2023-02-25T00:39:01.635Z,100.00
2023-02-25T00:41:30.878Z,100.00
2023-02-25T00:44:00.280Z,100.00
2023-02-25T00:46:30.031Z,100.00
2023-02-25T00:48:58.959Z,100.00
2023-02-25T00:51:32.541Z,100.00
2023-02-25T00:53:59.944Z,100.00
2023-02-25T00:56:27.697Z,100.00
2023-02-25T00:58:57.845Z,100.00
2023-02-25T01:01:26.566Z,100.00
2023-02-25T01:03:56.543Z,100.00
2023-02-25T01:06:29.685Z,100.00
2023-02-25T01:08:58.312Z,100.00
2023-02-25T01:11:32.351Z,100.00
2023-02-25T01:14:05.402Z,100.00
2023-02-25T01:16:34.259Z,100.00
2023-02-25T01:19:08.084Z,100.00
2023-02-25T01:21:39.430Z,100.00
2023-02-25T01:24:30.209Z,100.00
2023-02-25T01:27:15.705Z,100.00
2023-02-25T01:29:43.752Z,100.00
2023-02-25T01:32:14.143Z,100.00
2023-02-25T01:34:41.955Z,100.00
2023-02-25T01:37:10.030Z,100.00
2023-02-25T01:39:41.384Z,100.00
2023-02-25T01:42:14.988Z,100.00
2023-02-25T01:45:19.469Z,100.00
2023-02-25T01:47:51.932Z,100.00
2023-02-25T01:50:22.539Z,100.00
2023-02-25T01:52:51.284Z,100.00
2023-02-25T01:55:18.716Z,100.00
2023-02-25T01:57:46.201Z,100.00
2023-02-25T02:00:18.190Z,100.00
2023-02-25T02:02:49.649Z,100.00
2023-02-25T02:05:19.527Z,100.00
2023-02-25T02:07:47.235Z,100.00
2023-02-25T02:10:14.616Z,100.00
2023-02-25T02:12:44.998Z,100.00
2023-02-25T02:15:15.117Z,100.00
2023-02-25T02:17:48.259Z,100.00
2023-02-25T02:20:26.504Z,100.00
2023-02-25T02:23:32.459Z,100.00
2023-02-25T02:26:16.563Z,100.00
2023-02-25T02:29:15.614Z,100.00
2023-02-25T02:32:07.908Z,100.00
2023-02-25T02:34:59.930Z,100.00
2023-02-25T02:37:40.849Z,100.00
2023-02-25T02:40:46.652Z,100.00
2023-02-25T02:43:37.494Z,100.00
2023-02-25T02:46:27.834Z,100.00
2023-02-25T02:49:06.376Z,100.00
2023-02-25T02:51:45.130Z,100.00
2023-02-25T02:54:14.628Z,100.00
2023-02-25T02:56:46.970Z,100.00
2023-02-25T02:59:31.394Z,100.00
2023-02-25T03:02:06.520Z,100.00
2023-02-25T03:04:39.217Z,100.00
2023-02-25T03:07:10.009Z,100.00
2023-02-25T03:09:45.069Z,100.00
2023-02-25T03:12:12.548Z,100.00
2023-02-25T03:14:39.993Z,100.00
2023-02-25T03:17:28.548Z,100.00
2023-02-25T03:20:08.335Z,100.00
2023-02-25T03:22:41.473Z,100.00
2023-02-25T03:25:27.155Z,100.00
2023-02-25T03:27:57.482Z,100.00
2023-02-25T03:30:39.877Z,100.00
2023-02-25T03:33:48.482Z,100.00
2023-02-25T03:36:31.386Z,100.00
2023-02-25T03:39:06.155Z,100.00
2023-02-25T03:41:37.950Z,100.00
2023-02-25T03:44:11.662Z,100.00
2023-02-25T03:46:43.127Z,100.00
2023-02-25T03:49:19.215Z,100.00
2023-02-25T03:51:48.224Z,100.00
2023-02-25T03:54:16.733Z,100.00
2023-02-25T03:56:48.862Z,100.00
2023-02-25T03:59:18.739Z,100.00
2023-02-25T04:01:49.773Z,100.00
2023-02-25T04:04:17.107Z,100.00
2023-02-25T04:06:44.398Z,100.00
2023-02-25T04:09:14.185Z,100.00
2023-02-25T04:11:44.698Z,100.00
2023-02-25T04:14:12.007Z,100.00
2023-02-25T04:16:39.363Z,100.00
2023-02-25T04:19:07.510Z,100.00
2023-02-25T04:21:37.398Z,100.00
2023-02-25T04:24:06.890Z,100.00
2023-02-25T04:26:35.344Z,100.00
2023-02-25T04:29:03.869Z,100.00
2023-02-25T04:31:31.297Z,100.00
2023-02-25T04:33:58.812Z,100.00
2023-02-25T04:36:32.066Z,100.00
2023-02-25T04:39:01.776Z,100.00
2023-02-25T04:41:35.515Z,100.00
2023-02-25T04:44:04.151Z,100.00
2023-02-25T04:46:35.007Z,100.00
2023-02-25T04:49:02.569Z,100.00
2023-02-25T04:51:29.931Z,100.00
2023-02-25T04:53:57.377Z,100.00
2023-02-25T04:56:25.623Z,100.00
2023-02-25T04:58:54.021Z,100.00
2023-02-25T05:01:21.524Z,100.00
2023-02-25T05:03:49.250Z,100.00
2023-02-25T05:06:16.472Z,100.00
2023-02-25T05:08:46.144Z,100.00
2023-02-25T05:11:13.523Z,100.00
2023-02-25T05:13:40.803Z,100.00
2023-02-25T05:16:10.931Z,100.00
2023-02-25T05:18:41.045Z,100.00
2023-02-25T05:21:10.619Z,100.00
2023-02-25T05:23:39.583Z,100.00
2023-02-25T05:26:07.080Z,100.00
2023-02-25T05:28:34.823Z,100.00
2023-02-25T05:31:12.001Z,100.00
2023-02-25T05:33:40.294Z,100.00
2023-02-25T05:36:11.536Z,100.00
2023-02-25T05:38:39.300Z,100.00
2023-02-25T05:41:07.499Z,100.00
2023-02-25T05:43:35.971Z,100.00
2023-02-25T05:46:04.954Z,100.00
2023-02-25T05:48:32.698Z,100.00
2023-02-25T05:51:06.256Z,100.00
2023-02-25T05:53:36.566Z,100.00
2023-02-25T05:56:05.801Z,100.00
2023-02-25T05:58:35.382Z,100.00
2023-02-25T06:01:14.286Z,100.00
2023-02-25T06:03:43.102Z,100.00
2023-02-25T06:06:15.042Z,100.00
2023-02-25T06:08:44.760Z,100.00
2023-02-25T06:11:16.977Z,100.00
2023-02-25T06:13:44.325Z,100.00
2023-02-25T06:16:14.807Z,100.00
2023-02-25T06:18:42.213Z,100.00
2023-02-25T06:21:11.742Z,100.00
2023-02-25T06:23:40.824Z,100.00
2023-02-25T06:26:10.285Z,100.00
2023-02-25T06:28:38.468Z,100.00
2023-02-25T06:31:16.907Z,100.00
2023-02-25T06:33:46.812Z,100.00
2023-02-25T06:36:15.554Z,100.00
2023-02-25T06:38:46.025Z,100.00
2023-02-25T06:41:18.571Z,100.00
2023-02-25T06:43:46.697Z,100.00
2023-02-25T06:46:15.140Z,100.00
2023-02-25T06:48:42.593Z,100.00
2023-02-25T06:51:11.601Z,100.00
2023-02-25T06:53:40.739Z,100.00
2023-02-25T06:56:09.305Z,100.00
2023-02-25T06:58:37.473Z,99.21
2023-02-25T07:01:13.943Z,98.36
2023-02-25T07:03:43.581Z,98.29
2023-02-25T07:06:12.031Z,94.82
2023-02-25T07:08:39.831Z,93.39
2023-02-25T07:11:31.640Z,94.50
2023-02-25T07:13:59.146Z,96.00
2023-02-25T07:16:27.190Z,93.38
2023-02-25T07:18:55.621Z,91.20
2023-02-25T07:21:23.296Z,91.45
2023-02-25T07:23:50.621Z,92.74
2023-02-25T07:26:17.942Z,91.55
2023-02-25T07:28:45.666Z,91.28
2023-02-25T07:31:15.549Z,91.55
2023-02-25T07:33:43.026Z,88.12
2023-02-25T07:36:11.359Z,94.11
2023-02-25T07:38:39.127Z,93.70
2023-02-25T07:41:12.470Z,92.86
2023-02-25T07:43:40.594Z,93.80
2023-02-25T07:46:10.597Z,95.97
2023-02-25T07:48:37.916Z,93.86
2023-02-25T07:51:17.187Z,89.69
2023-02-25T07:53:45.896Z,89.42
2023-02-25T07:56:14.070Z,85.74
2023-02-25T07:58:41.444Z,84.11
2023-02-25T08:01:10.174Z,87.12
2023-02-25T08:03:38.331Z,93.68
2023-02-25T08:06:08.143Z,93.01
2023-02-25T08:08:36.969Z,94.69
2023-02-25T08:11:08.711Z,93.97
2023-02-25T08:13:36.377Z,93.91
2023-02-25T08:16:09.106Z,94.81
2023-02-25T08:18:37.187Z,94.66
2023-02-25T08:21:05.420Z,92.12
2023-02-25T08:23:32.737Z,89.27
2023-02-25T08:26:00.632Z,91.14
2023-02-25T08:28:34.366Z,88.71
2023-02-25T08:31:04.558Z,87.45
2023-02-25T08:33:32.029Z,86.87
2023-02-25T08:36:12.398Z,85.67
2023-02-25T08:38:40.272Z,82.63
2023-02-25T08:41:07.717Z,82.57
2023-02-25T08:43:36.411Z,80.53
2023-02-25T08:46:06.344Z,78.39
2023-02-25T08:48:35.353Z,75.50
2023-02-25T08:51:10.640Z,75.05
2023-02-25T08:53:40.653Z,71.57
2023-02-25T08:56:10.945Z,72.40
2023-02-25T08:58:39.505Z,73.93
2023-02-25T09:01:15.037Z,77.50
2023-02-25T09:03:53.635Z,77.11
2023-02-25T09:06:30.522Z,76.43
2023-02-25T09:08:57.940Z,76.70
2023-02-25T09:11:25.959Z,77.03
2023-02-25T09:13:53.768Z,78.70
2023-02-25T09:16:21.618Z,78.66
2023-02-25T09:18:51.327Z,78.79
2023-02-25T09:21:19.864Z,78.79
2023-02-25T09:23:47.460Z,76.64
2023-02-25T09:26:15.311Z,72.86
2023-02-25T09:28:42.855Z,70.99
2023-02-25T09:31:10.335Z,72.81
2023-02-25T09:33:38.069Z,72.90
2023-02-25T09:36:08.602Z,73.80
2023-02-25T09:38:37.679Z,69.29
2023-02-25T09:41:22.345Z,70.29
2023-02-25T09:44:05.697Z,73.04
2023-02-25T09:46:37.277Z,71.00
2023-02-25T09:49:21.367Z,69.65
2023-02-25T09:51:59.997Z,69.71
2023-02-25T09:54:34.346Z,70.28
2023-02-25T09:57:04.567Z,66.03
2023-02-25T09:59:32.354Z,66.16
2023-02-25T10:02:16.368Z,68.32
2023-02-25T10:04:50.973Z,70.38
2023-02-25T10:07:33.904Z,73.89
2023-02-25T10:10:21.732Z,77.44
2023-02-25T10:12:49.054Z,76.20
2023-02-25T10:15:35.180Z,77.12
2023-02-25T10:18:31.663Z,78.34
2023-02-25T10:21:37.824Z,77.40
2023-02-25T10:24:14.398Z,77.05
2023-02-25T10:26:49.495Z,75.04
2023-02-25T10:29:28.211Z,72.60
2023-02-25T10:32:00.567Z,73.94
2023-02-25T10:34:30.288Z,72.42
2023-02-25T10:37:00.137Z,73.57
2023-02-25T10:39:28.534Z,74.63
2023-02-25T10:41:56.315Z,74.50
2023-02-25T10:44:23.702Z,77.47
2023-02-25T10:47:03.304Z,77.40
2023-02-25T10:49:37.950Z,75.05
2023-02-25T10:52:15.120Z,77.44
2023-02-25T10:54:53.138Z,76.11
2023-02-25T10:57:26.360Z,77.01
2023-02-25T11:00:01.790Z,74.97
2023-02-25T11:02:31.775Z,75.59
2023-02-25T11:04:59.205Z,73.24
2023-02-25T11:07:40.056Z,73.69
2023-02-25T11:10:22.010Z,73.21
2023-02-25T11:12:52.481Z,70.72
2023-02-25T11:15:44.295Z,69.70
2023-02-25T11:18:31.011Z,69.28
2023-02-25T11:21:02.469Z,70.21
2023-02-25T11:23:32.583Z,70.33
2023-02-25T11:26:00.188Z,69.38
2023-02-25T11:28:35.902Z,67.32
2023-02-25T11:31:19.114Z,67.66
2023-02-25T11:33:53.365Z,68.76
2023-02-25T11:36:23.939Z,66.84
2023-02-25T11:39:21.161Z,65.27
2023-02-25T11:41:51.247Z,63.13
2023-02-25T11:44:44.524Z,63.58
2023-02-25T11:47:38.556Z,61.09
2023-02-25T11:50:14.738Z,60.46
2023-02-25T11:53:23.035Z,62.76
2023-02-25T11:56:03.027Z,61.52
2023-02-25T11:58:33.042Z,59.00
2023-02-25T12:01:25.060Z,61.09
2023-02-25T12:04:11.057Z,59.49
2023-02-25T12:06:38.250Z,57.92
2023-02-25T12:09:30.629Z,56.94
2023-02-25T12:12:03.820Z,56.74
2023-02-25T12:14:34.089Z,55.63
2023-02-25T12:17:35.062Z,53.24
2023-02-25T12:20:24.058Z,53.98
2023-02-25T12:23:31.672Z,53.29
2023-02-25T12:26:14.563Z,51.55
2023-02-25T12:29:15.674Z,50.35
2023-02-25T12:32:11.732Z,51.08
2023-02-25T12:35:23.549Z,51.09
2023-02-25T12:38:03.045Z,51.37
2023-02-25T12:40:53.184Z,50.85
2023-02-25T12:44:02.758Z,49.79
2023-02-25T12:47:02.100Z,48.79
2023-02-25T12:49:47.932Z,49.78
2023-02-25T12:52:24.934Z,50.41
2023-02-25T12:55:13.792Z,50.64
2023-02-25T12:57:53.249Z,51.24
2023-02-25T13:00:51.865Z,49.94
2023-02-25T13:03:36.806Z,51.52
2023-02-25T13:06:22.648Z,51.44
2023-02-25T13:09:01.165Z,53.22
2023-02-25T13:12:10.589Z,52.86
2023-02-25T13:14:56.971Z,52.90
2023-02-25T13:17:55.236Z,53.09
2023-02-25T13:20:53.327Z,52.52
2023-02-25T13:23:58.701Z,52.84
2023-02-25T13:26:50.162Z,55.56
2023-02-25T13:29:44.820Z,57.26
2023-02-25T13:32:26.540Z,56.91
2023-02-25T13:35:09.978Z,56.77
2023-02-25T13:37:54.822Z,57.18
2023-02-25T13:40:44.907Z,58.41
2023-02-25T13:43:45.903Z,59.20
2023-02-25T13:46:28.594Z,60.39
2023-02-25T13:49:19.227Z,61.49
2023-02-25T13:52:09.521Z,62.16
2023-02-25T13:55:02.696Z,62.95
2023-02-25T13:57:35.969Z,63.00
2023-02-25T14:00:37.373Z,62.15
2023-02-25T14:03:43.130Z,62.04
2023-02-25T14:06:35.733Z,62.39
2023-02-25T14:09:09.426Z,62.46
2023-02-25T14:11:45.686Z,62.08
2023-02-25T14:14:25.008Z,62.21
2023-02-25T14:17:01.557Z,62.72
2023-02-25T14:19:31.616Z,63.16
2023-02-25T14:22:20.147Z,62.88
2023-02-25T14:25:08.099Z,65.02
2023-02-25T14:27:53.493Z,64.48
2023-02-25T14:30:37.336Z,64.54
2023-02-25T14:33:23.333Z,65.06
2023-02-25T14:36:26.606Z,65.77
2023-02-25T14:39:06.664Z,66.56
2023-02-25T14:42:02.910Z,66.44
2023-02-25T14:44:50.691Z,67.18
2023-02-25T14:47:22.577Z,67.66
2023-02-25T14:49:58.945Z,68.42
2023-02-25T14:52:35.242Z,68.60
2023-02-25T14:55:16.049Z,69.08
2023-02-25T14:58:06.243Z,67.53
2023-02-25T15:01:01.185Z,69.01
2023-02-25T15:03:31.125Z,69.54
2023-02-25T15:06:10.281Z,69.85
2023-02-25T15:09:08.310Z,69.81
2023-02-25T15:11:53.748Z,71.36
2023-02-25T15:14:45.459Z,71.76
2023-02-25T15:17:44.024Z,71.11
2023-02-25T15:20:27.648Z,72.10
2023-02-25T15:23:05.241Z,72.56
2023-02-25T15:25:53.923Z,71.67
2023-02-25T15:28:30.382Z,72.86
2023-02-25T15:31:01.051Z,73.11
2023-02-25T15:33:47.590Z,73.74
2023-02-25T15:36:14.842Z,73.68
2023-02-25T15:38:53.483Z,73.84
2023-02-25T15:41:26.601Z,74.36
2023-02-25T15:44:21.533Z,75.68
2023-02-25T15:46:49.881Z,76.09
2023-02-25T15:49:17.185Z,76.52
2023-02-25T15:51:53.716Z,76.48
2023-02-25T15:54:29.987Z,75.59
2023-02-25T15:57:03.171Z,75.86
2023-02-25T15:59:46.887Z,77.41
2023-02-25T16:02:26.461Z,78.42
2023-02-25T16:05:01.913Z,78.48
2023-02-25T16:07:47.183Z,78.36
2023-02-25T16:10:30.429Z,80.12
2023-02-25T16:12:58.469Z,79.24
2023-02-25T16:15:45.321Z,79.18
2023-02-25T16:18:34.097Z,79.96
2023-02-25T16:21:14.497Z,80.57
2023-02-25T16:23:43.035Z,80.04
2023-02-25T16:26:28.531Z,80.68
2023-02-25T16:28:58.821Z,81.01
2023-02-25T16:31:44.165Z,82.15
2023-02-25T16:34:22.809Z,83.66
2023-02-25T16:37:01.642Z,84.41
2023-02-25T16:39:31.281Z,85.08
2023-02-25T16:42:04.692Z,86.06
2023-02-25T16:44:38.472Z,87.11
2023-02-25T16:47:22.662Z,88.55
2023-02-25T16:49:51.907Z,89.50
2023-02-25T16:52:30.334Z,90.03
2023-02-25T16:55:00.624Z,91.11
2023-02-25T16:57:28.163Z,91.14
2023-02-25T17:00:06.211Z,91.67
2023-02-25T17:02:47.472Z,92.29
2023-02-25T17:05:33.046Z,92.59
2023-02-25T17:08:03.916Z,93.43
2023-02-25T17:10:45.936Z,93.59
2023-02-25T17:13:29.334Z,94.27
2023-02-25T17:15:57.126Z,95.07
2023-02-25T17:18:32.679Z,95.38
2023-02-25T17:21:20.388Z,96.00
2023-02-25T17:23:48.233Z,96.55
2023-02-25T17:26:16.280Z,92.29
2023-02-25T17:28:48.733Z,91.42
2023-02-25T17:31:26.654Z,91.25
2023-02-25T17:34:00.833Z,90.54
2023-02-25T17:36:39.811Z,91.89
2023-02-25T17:39:12.526Z,92.99
2023-02-25T17:41:41.864Z,93.33
2023-02-25T17:44:32.885Z,93.26
2023-02-25T17:47:00.242Z,93.61
2023-02-25T17:49:33.157Z,92.80
2023-02-25T17:52:04.528Z,93.37
2023-02-25T17:54:37.305Z,94.14
2023-02-25T17:57:22.147Z,94.96
2023-02-25T17:59:53.146Z,95.29
2023-02-25T18:02:23.279Z,94.04
2023-02-25T18:05:22.345Z,93.68
2023-02-25T18:08:27.483Z,94.20
2023-02-25T18:11:12.878Z,92.69
2023-02-25T18:13:40.277Z,93.21
2023-02-25T18:16:23.782Z,94.07
2023-02-25T18:18:52.079Z,93.34
2023-02-25T18:21:21.390Z,93.51
2023-02-25T18:23:53.352Z,93.85
2023-02-25T18:26:23.984Z,93.49
2023-02-25T18:28:52.548Z,93.58
2023-02-25T18:31:20.378Z,94.71
2023-02-25T18:33:48.339Z,94.32
2023-02-25T18:36:23.536Z,94.62
2023-02-25T18:38:54.395Z,93.60
2023-02-25T18:41:22.408Z,95.30
2023-02-25T18:43:49.749Z,93.96
2023-02-25T18:46:17.105Z,93.43
2023-02-25T18:48:44.505Z,94.75
2023-02-25T18:51:14.163Z,93.76
2023-02-25T18:53:42.045Z,94.44
2023-02-25T18:56:16.041Z,94.40
2023-02-25T18:58:44.469Z,95.55
2023-02-25T19:01:23.485Z,95.39
2023-02-25T19:03:51.420Z,96.60
2023-02-25T19:06:18.731Z,97.19
2023-02-25T19:08:46.418Z,97.68
2023-02-25T19:11:22.776Z,98.21
2023-02-25T19:13:51.136Z,97.69
2023-02-25T19:16:19.315Z,96.50
2023-02-25T19:18:47.421Z,95.04
2023-02-25T19:21:17.883Z,95.09
2023-02-25T19:23:45.979Z,95.48
2023-02-25T19:26:14.673Z,94.65
2023-02-25T19:28:42.169Z,95.28
2023-02-25T19:31:09.845Z,95.77
2023-02-25T19:33:37.268Z,95.88
2023-02-25T19:36:04.986Z,96.07
2023-02-25T19:38:32.374Z,97.22
2023-02-25T19:41:06.047Z,96.81
2023-02-25T19:43:34.098Z,97.29
2023-02-25T19:46:08.227Z,97.06
2023-02-25T19:48:38.940Z,97.82
2023-02-25T19:51:08.306Z,96.95
2023-02-25T19:53:36.619Z,97.62
2023-02-25T19:56:05.402Z,99.11
2023-02-25T19:58:33.318Z,98.86
2023-02-25T20:01:06.678Z,97.87
2023-02-25T20:03:35.282Z,98.44
2023-02-25T20:06:12.941Z,98.27
2023-02-25T20:08:40.676Z,98.83
2023-02-25T20:11:09.929Z,98.38
2023-02-25T20:13:38.476Z,96.82
2023-02-25T20:16:06.290Z,96.52
2023-02-25T20:18:33.623Z,96.79
2023-02-25T20:21:00.965Z,97.23
2023-02-25T20:23:28.204Z,97.87
2023-02-25T20:26:13.146Z,98.28
2023-02-25T20:28:41.335Z,99.00
2023-02-25T20:31:16.991Z,99.35
2023-02-25T20:33:44.446Z,98.95
2023-02-25T20:36:29.673Z,97.46
2023-02-25T20:39:20.582Z,98.26
2023-02-25T20:41:48.269Z,97.77
2023-02-25T20:44:18.603Z,97.62
2023-02-25T20:46:46.474Z,97.95
2023-02-25T20:49:15.948Z,98.63
2023-02-25T20:51:45.947Z,98.94
2023-02-25T20:54:16.228Z,100.00
2023-02-25T20:56:44.087Z,100.00
2023-02-25T20:59:14.200Z,100.00
2023-02-25T21:01:41.984Z,100.00
2023-02-25T21:04:09.933Z,100.00
2023-02-25T21:06:38.214Z,100.00
2023-02-25T21:09:06.716Z,100.00
2023-02-25T21:11:34.461Z,100.00
2023-02-25T21:14:01.831Z,100.00
2023-02-25T21:16:47.846Z,100.00
2023-02-25T21:19:15.180Z,100.00
2023-02-25T21:21:43.443Z,100.00
2023-02-25T21:24:12.365Z,100.00
2023-02-25T21:26:39.782Z,100.00
2023-02-25T21:29:08.392Z,100.00
2023-02-25T21:31:36.479Z,100.00
2023-02-25T21:34:04.997Z,100.00
2023-02-25T21:36:35.337Z,100.00
2023-02-25T21:39:02.929Z,100.00
2023-02-25T21:41:30.417Z,100.00
2023-02-25T21:43:58.005Z,100.00
2023-02-25T21:46:25.711Z,100.00
2023-02-25T21:48:55.317Z,100.00
2023-02-25T21:51:25.185Z,100.00
2023-02-25T21:54:00.163Z,100.00
2023-02-25T21:56:29.227Z,100.00
2023-02-25T21:58:58.584Z,100.00
2023-02-25T22:01:29.202Z,100.00
2023-02-25T22:03:57.098Z,100.00
2023-02-25T22:06:26.253Z,100.00
2023-02-25T22:08:54.506Z,100.00
2023-02-25T22:11:33.801Z,100.00
2023-02-25T22:14:03.076Z,100.00
2023-02-25T22:16:30.438Z,100.00
2023-02-25T22:18:58.035Z,100.00
2023-02-25T22:21:28.002Z,100.00
2023-02-25T22:23:58.310Z,100.00
2023-02-25T22:26:28.449Z,100.00
2023-02-25T22:28:57.905Z,100.00
2023-02-25T22:31:26.318Z,100.00
2023-02-25T22:33:55.129Z,100.00
2023-02-25T22:36:23.026Z,100.00
2023-02-25T22:38:50.748Z,100.00
2023-02-25T22:41:23.733Z,100.00
2023-02-25T22:43:51.646Z,100.00
2023-02-25T22:46:28.312Z,100.00
2023-02-25T22:48:58.697Z,100.00
2023-02-25T22:51:32.868Z,100.00
2023-02-25T22:54:00.235Z,100.00
2023-02-25T22:56:28.270Z,100.00
2023-02-25T22:58:55.931Z,100.00
2023-02-25T23:01:24.901Z,100.00
2023-02-25T23:03:53.595Z,100.00
2023-02-25T23:06:42.137Z,100.00
2023-02-25T23:09:11.750Z,100.00
2023-02-25T23:11:41.524Z,100.00
2023-02-25T23:14:10.266Z,100.00
2023-02-25T23:16:43.165Z,100.00
2023-02-25T23:19:16.918Z,100.00
2023-02-25T23:21:44.844Z,100.00
2023-02-25T23:24:19.680Z,100.00
2023-02-25T23:26:50.633Z,100.00
2023-02-25T23:29:18.554Z,100.00
2023-02-25T23:31:47.545Z,100.00
2023-02-25T23:34:19.764Z,100.00
2023-02-25T23:36:47.526Z,100.00
2023-02-25T23:39:15.723Z,100.00
2023-02-25T23:41:46.081Z,100.00
2023-02-25T23:44:14.341Z,100.00
2023-02-25T23:46:43.119Z,100.00
2023-02-25T23:49:16.293Z,100.00
2023-02-25T23:51:46.255Z,100.00
2023-02-25T23:54:16.762Z,100.00
2023-02-25T23:56:47.563Z,100.00
2023-02-25T23:59:15.703Z,100.00
